Time;durP1;ratioP1;P1;durP2;ratioP2;P2;SDS_P1;SDS_P2;PMS_P1;PMS_P2;Temp;Humidity;BMP_temperature;BMP_pressure;BME280_temperature;BME280_humidity;BME280_pressure;Samples;Min_cycle;Max_cycle;Signal;HPM_P1;HPM_P2
2023/06/17 00:00:10;;;;;;;;;;;;;;;;;;5087381;28;19912;-46
2023/06/17 05:10:57;;;;;;;;;;;;;;;;;;5084944;28;19922;-40
2023/06/17 05:13:23;;;;;;;;;;;;;;;;;;5086005;28;20019;-40
2023/06/17 05:15:49;;;;;;;;;;;;;;;;;;5086767;28;20008;-40
2023/06/17 05:18:15;;;;;;;;;;;;;;;;;;5089822;28;19912;-40
2023/06/17 05:20:41;;;;;;;;;;;;;;;;;;5090608;28;20391;-40
2023/06/17 05:23:07;;;;;;;;;;;;;;;;;;5092136;28;20010;-41
2023/06/17 05:25:33;;;;;;;;;;;;;;;;;;5091730;28;19912;-41
2023/06/17 05:28:00;;;;;;;;;;;;;;;;;;5092041;28;19939;-41
2023/06/17 05:30:26;;;;;;;;;;;;;;;;;;5088047;28;19916;-40
2023/06/17 05:32:52;;;;;;;;;;;;;;;;;;5091448;28;20413;-42
2023/06/17 05:35:18;;;;;;;;;;;;;;;;;;5088392;28;19912;-40
2023/06/17 05:37:44;;;;;;;;;;;;;;;;;;5091542;28;19912;-40
2023/06/17 05:40:09;;;;;;;;;;;;;;;;;;5087755;28;19916;-40
2023/06/17 05:42:36;;;;;;;;;;;;;;;;;;5091261;28;19916;-40
2023/06/17 05:45:02;;;;;;;;;;;;;;;;;;5091660;28;19912;-40
2023/06/17 05:47:28;;;;;;;;;;;;;;;;;;5091534;28;19976;-40
2023/06/17 05:49:54;;;;;;;;;;;;;;;;;;5090934;28;19938;-40
2023/06/17 05:52:20;;;;;;;;;;;;;;;;;;5091568;28;19912;-40
2023/06/17 05:54:46;;;;;;;;;;;;;;;;;;5091657;28;19908;-39
2023/06/17 05:57:12;;;;;;;;;;;;;;;;;;5090926;28;19920;-39
2023/06/17 05:59:38;;;;;;;;;;;;;;;;;;5089708;28;19916;-39
2023/06/17 06:02:04;;;;;;;;;;;;;;;;;;5091172;28;19912;-40
2023/06/17 06:04:30;;;;;;;;;;;;;;;;;;5090812;28;19916;-40
2023/06/17 06:06:56;;;;;;;;;;;;;;;;;;5088811;28;20432;-41
2023/06/17 06:09:23;;;;;;;;;;;;;;;;;;5089217;28;19939;-40
2023/06/17 06:11:49;;;;;;;;;;;;;;;;;;5089420;28;20388;-40
2023/06/17 06:14:15;;;;;;;;;;;;;;;;;;5091541;28;20452;-40
2023/06/17 06:16:41;;;;;;;;;;;;;;;;;;5085805;28;20011;-41
2023/06/17 06:19:07;;;;;;;;;;;;;;;;;;5086472;28;19912;-39
2023/06/17 06:21:32;;;;;;;;;;;;;;;;;;5085341;28;19998;-40
2023/06/17 06:23:59;;;;;;;;;;;;;;;;;;5089528;28;19912;-40
2023/06/17 06:26:26;;;;;;;;;;;;;;;;;;5088573;28;20356;-40
2023/06/17 06:28:52;;;;;;;;;;;;;;;;;;5089658;28;19916;-40
2023/06/17 06:31:19;;;;;;;;;;;;;;;;;;5090658;28;19908;-40
2023/06/17 06:33:45;;;;;;;;;;;;;;;;;;5092089;28;19912;-40
2023/06/17 06:36:11;;;;;;;;;;;;;;;;;;5090456;28;19919;-40
2023/06/17 06:38:37;;;;;;;;;;;;;;;;;;5091830;28;19908;-39
2023/06/17 06:41:03;;;;;;;;;;;;;;;;;;5091672;28;19908;-40
2023/06/17 06:43:28;;;;;;;;;;;;;;;;;;5086715;28;20019;-40
2023/06/17 06:45:54;;;;;;;;;;;;;;;;;;5080957;28;19908;-40
2023/06/17 06:48:20;;;;;;;;;;;;;;;;;;5085188;28;19916;-40
2023/06/17 06:50:46;;;;;;;;;;;;;;;;;;5090650;28;19912;-40
2023/06/17 06:53:12;;;;;;;;;;;;;;;;;;5091729;28;19947;-40
2023/06/17 06:55:38;;;;;;;;;;;;;;;;;;5091368;28;19920;-40
2023/06/17 06:58:04;;;;;;;;;;;;;;;;;;5091185;28;19908;-40
2023/06/17 07:00:30;;;;;;;;;;;;;;;;;;5091304;28;19912;-40
2023/06/17 07:02:57;;;;;;;;;;;;;;;;;;5091126;28;19939;-41
2023/06/17 07:05:23;;;;;;;;;;;;;;;;;;5091436;28;19966;-40
2023/06/17 07:07:49;;;;;;;;;;;;;;;;;;5078254;28;19924;-40
2023/06/17 07:10:15;;;;;;;;;;;;;;;;;;5073969;28;20327;-40
2023/06/17 07:12:41;;;;;;;;;;;;;;;;;;5076216;28;19912;-40
2023/06/17 07:15:07;;;;;;;;;;;;;;;;;;5070842;28;19913;-41
2023/06/17 07:17:33;;;;;;;;;;;;;;;;;;5087704;28;19969;-40
2023/06/17 07:19:59;;;;;;;;;;;;;;;;;;5089726;28;19912;-41
2023/06/17 07:22:25;;;;;;;;;;;;;;;;;;5089880;28;19912;-40
2023/06/17 07:24:51;;;;;;;;;;;;;;;;;;5089232;28;20026;-40
2023/06/17 07:27:17;;;;;;;;;;;;;;;;;;5085082;28;19916;-40
2023/06/17 07:29:43;;;;;;;;;;;;;;;;;;5084794;28;19916;-40
2023/06/17 07:32:10;;;;;;;;;;;;;;;;;;5087640;28;20368;-40
2023/06/17 07:34:36;;;;;;;;;;;;;;;;;;5089101;28;19923;-40
2023/06/17 07:37:02;;;;;;;;;;;;;;;;;;5087697;28;20353;-40
2023/06/17 07:39:28;;;;;;;;;;;;;;;;;;5089504;28;19909;-40
2023/06/17 07:41:54;;;;;;;;;;;;;;;;;;5088940;28;20285;-41
2023/06/17 07:44:20;;;;;;;;;;;;;;;;;;5087897;28;19951;-40
2023/06/17 07:46:46;;;;;;;;;;;;;;;;;;5088348;28;19999;-40
2023/06/17 07:49:12;;;;;;;;;;;;;;;;;;5086355;28;19916;-41
2023/06/17 07:51:38;;;;;;;;;;;;;;;;;;5077815;28;19912;-40
2023/06/17 07:54:04;;;;;;;;;;;;;;;;;;5072652;28;19912;-42
2023/06/17 07:56:30;;;;;;;;;;;;;;;;;;5087807;28;19917;-42
2023/06/17 07:58:56;;;;;;;;;;;;;;;;;;5089131;28;19916;-42
2023/06/17 08:01:22;;;;;;;;;;;;;;;;;;5088316;28;20041;-40
2023/06/17 08:03:48;;;;;;;;;;;;;;;;;;5086963;28;19923;-43
2023/06/17 08:06:14;;;;;;;;;;;;;;;;;;5088399;28;19909;-40
2023/06/17 08:08:40;;;;;;;;;;;;;;;;;;5087610;28;19921;-41
2023/06/17 08:11:07;;;;;;;;;;;;;;;;;;5088168;28;19920;-41
2023/06/17 08:13:33;;;;;;;;;;;;;;;;;;5087479;28;19916;-41
2023/06/17 08:15:59;;;;;;;;;;;;;;;;;;5088945;28;19946;-42
2023/06/17 08:18:25;;;;;;;;;;;;;;;;;;5089937;28;19911;-42
2023/06/17 08:20:53;;;;;;;;;;;;;;;;;;5087418;28;20409;-41
2023/06/17 08:23:20;;;;;;;;;;;;;;;;;;5087593;28;19966;-42
2023/06/17 08:25:46;;;;;;;;;;;;;;;;;;5087051;28;19912;-43
2023/06/17 08:28:12;;;;;;;;;;;;;;;;;;5085604;28;19920;-41
2023/06/17 08:30:39;;;;;;;;;;;;;;;;;;5086271;28;19924;-42
2023/06/17 08:33:05;;;;;;;;;;;;;;;;;;5086848;28;19908;-43
2023/06/17 08:35:31;;;;;;;;;;;;;;;;;;5086905;28;19912;-42
2023/06/17 08:37:58;;;;;;;;;;;;;;;;;;5087544;28;19934;-41
2023/06/17 08:40:24;;;;;;;;;;;;;;;;;;5086849;28;19912;-43
2023/06/17 08:42:50;;;;;;;;;;;;;;;;;;5086552;28;20285;-43
2023/06/17 08:45:16;;;;;;;;;;;;;;;;;;5086890;28;20388;-41
2023/06/17 08:47:42;;;;;;;;;;;;;;;;;;5085279;28;19919;-43
2023/06/17 08:50:08;;;;;;;;;;;;;;;;;;5086761;28;19970;-42
2023/06/17 08:52:36;;;;;;;;;;;;;;;;;;5088527;28;19962;-41
2023/06/17 08:55:02;;;;;;;;;;;;;;;;;;5089363;28;19912;-42
2023/06/17 08:57:28;;;;;;;;;;;;;;;;;;5091156;28;19908;-42
2023/06/17 08:59:54;;;;;;;;;;;;;;;;;;5090434;28;19918;-43
2023/06/17 09:02:20;;;;;;;;;;;;;;;;;;5090651;28;19919;-41
2023/06/17 09:04:46;;;;;;;;;;;;;;;;;;5090777;28;20053;-41
2023/06/17 09:07:12;;;;;;;;;;;;;;;;;;5093502;28;19912;-43
2023/06/17 09:09:38;;;;;;;;;;;;;;;;;;5098694;28;20013;-44
2023/06/17 09:12:05;;;;;;;;;;;;;;;;;;5087021;28;19920;-42
2023/06/17 09:14:31;;;;;;;;;;;;;;;;;;5090127;28;19912;-42
2023/06/17 09:16:57;;;;;;;;;;;;;;;;;;5090442;28;20284;-41
2023/06/17 09:19:23;;;;;;;;;;;;;;;;;;5090359;28;19915;-41
2023/06/17 09:21:49;;;;;;;;;;;;;;;;;;5090342;28;19912;-41
2023/06/17 09:24:15;;;;;;;;;;;;;;;;;;5090409;28;19912;-40
2023/06/17 09:26:41;;;;;;;;;;;;;;;;;;5090705;28;19908;-40
2023/06/17 09:29:07;;;;;;;;;;;;;;;;;;5089125;28;19916;-43
2023/06/17 09:31:33;;;;;;;;;;;;;;;;;;5075398;28;20015;-41
2023/06/17 09:33:59;;;;;;;;;;;;;;;;;;5069998;28;19919;-41
2023/06/17 09:36:25;;;;;;;;;;;;;;;;;;5070008;28;19908;-41
2023/06/17 09:38:51;;;;;;;;;;;;;;;;;;5069874;28;19913;-41
2023/06/17 09:41:18;;;;;;;;;;;;;;;;;;5069561;28;19972;-41
2023/06/17 09:43:44;;;;;;;;;;;;;;;;;;5069692;28;20396;-41
2023/06/17 09:46:11;;;;;;;;;;;;;;;;;;5070471;28;19909;-43
2023/06/17 09:48:40;;;;;;;;;;;;;;;;;;5069644;28;19912;-41
2023/06/17 09:51:09;;;;;;;;;;;;;;;;;;5069623;28;20278;-42
2023/06/17 09:53:35;;;;;;;;;;;;;;;;;;5069509;28;20043;-42
2023/06/17 09:56:01;;;;;;;;;;;;;;;;;;5069334;28;19912;-42
2023/06/17 09:58:28;;;;;;;;;;;;;;;;;;5069432;28;19912;-43
2023/06/17 10:00:54;;;;;;;;;;;;;;;;;;5069308;28;19935;-41
2023/06/17 10:03:20;;;;;;;;;;;;;;;;;;5068798;28;19954;-41
2023/06/17 10:05:46;;;;;;;;;;;;;;;;;;5068982;28;19912;-43
2023/06/17 10:08:12;;;;;;;;;;;;;;;;;;5069906;28;19966;-41
2023/06/17 10:10:38;;;;;;;;;;;;;;;;;;5074272;28;19961;-44
2023/06/17 10:13:04;;;;;;;;;;;;;;;;;;5089425;28;19919;-41
2023/06/17 10:15:30;;;;;;;;;;;;;;;;;;5089410;28;20049;-42
2023/06/17 10:17:56;;;;;;;;;;;;;;;;;;5089453;28;19912;-40
2023/06/17 10:20:21;;;;;;;;;;;;;;;;;;5089146;28;19908;-41
2023/06/17 10:22:48;;;;;;;;;;;;;;;;;;5089297;28;20003;-42
2023/06/17 10:25:14;;;;;;;;;;;;;;;;;;5089348;28;19912;-40
2023/06/17 10:27:40;;;;;;;;;;;;;;;;;;5089620;28;19943;-42
2023/06/17 10:30:06;;;;;;;;;;;;;;;;;;5082110;28;19920;-41
2023/06/17 10:32:32;;;;;;;;;;;;;;;;;;5085544;28;20301;-41
2023/06/17 10:34:58;;;;;;;;;;;;;;;;;;5087589;28;19919;-41
2023/06/17 10:37:25;;;;;;;;;;;;;;;;;;5088891;28;20417;-42
2023/06/17 10:39:51;;;;;;;;;;;;;;;;;;5088724;28;20419;-41
2023/06/17 10:42:17;;;;;;;;;;;;;;;;;;5088852;28;19912;-41
2023/06/17 10:44:43;;;;;;;;;;;;;;;;;;5089453;28;19919;-42
2023/06/17 10:47:10;;;;;;;;;;;;;;;;;;5088905;28;20239;-43
2023/06/17 10:49:36;;;;;;;;;;;;;;;;;;5088524;28;19916;-41
2023/06/17 10:52:02;;;;;;;;;;;;;;;;;;5088652;28;19915;-41
2023/06/17 10:54:29;;;;;;;;;;;;;;;;;;5088531;28;19915;-42
2023/06/17 10:56:55;;;;;;;;;;;;;;;;;;5088310;28;19909;-42
2023/06/17 10:59:21;;;;;;;;;;;;;;;;;;5088355;28;19908;-41
2023/06/17 11:01:47;;;;;;;;;;;;;;;;;;5087673;28;19912;-41
2023/06/17 11:04:14;;;;;;;;;;;;;;;;;;5087816;28;19952;-41
2023/06/17 11:06:40;;;;;;;;;;;;;;;;;;5087172;28;20291;-42
2023/06/17 11:09:06;;;;;;;;;;;;;;;;;;5088383;28;19916;-41
2023/06/17 11:11:32;;;;;;;;;;;;;;;;;;5100047;28;19916;-41
2023/06/17 11:13:58;;;;;;;;;;;;;;;;;;5088242;28;19955;-41
2023/06/17 11:16:24;;;;;;;;;;;;;;;;;;5087692;28;19912;-41
2023/06/17 11:18:50;;;;;;;;;;;;;;;;;;5086743;28;19942;-41
2023/06/17 11:21:15;;;;;;;;;;;;;;;;;;5086713;28;19916;-41
2023/06/17 11:23:41;;;;;;;;;;;;;;;;;;5088268;28;20308;-41
2023/06/17 11:26:08;;;;;;;;;;;;;;;;;;5087667;28;19946;-41
2023/06/17 11:28:35;;;;;;;;;;;;;;;;;;5087916;28;19977;-41
2023/06/17 11:31:01;;;;;;;;;;;;;;;;;;5080348;28;19917;-42
2023/06/17 11:33:28;;;;;;;;;;;;;;;;;;5084469;28;20384;-41
2023/06/17 11:35:55;;;;;;;;;;;;;;;;;;5088445;28;20328;-42
2023/06/17 11:38:22;;;;;;;;;;;;;;;;;;5087820;28;19912;-41
2023/06/17 11:40:49;;;;;;;;;;;;;;;;;;5087354;28;19919;-42
2023/06/17 11:43:16;;;;;;;;;;;;;;;;;;5087713;28;20388;-41
2023/06/17 11:45:42;;;;;;;;;;;;;;;;;;5087647;28;19908;-41
2023/06/17 11:48:08;;;;;;;;;;;;;;;;;;5087500;28;19986;-42
2023/06/17 11:50:35;;;;;;;;;;;;;;;;;;5085411;28;20403;-42
2023/06/17 11:53:01;;;;;;;;;;;;;;;;;;5087854;28;20001;-41
2023/06/17 11:55:27;;;;;;;;;;;;;;;;;;5087213;28;19950;-41
2023/06/17 11:57:53;;;;;;;;;;;;;;;;;;5088183;28;19912;-42
2023/06/17 12:00:19;;;;;;;;;;;;;;;;;;5085953;28;19916;-42
2023/06/17 12:02:45;;;;;;;;;;;;;;;;;;5087481;28;19944;-41
2023/06/17 12:05:11;;;;;;;;;;;;;;;;;;5086168;28;19912;-42
2023/06/17 12:07:39;;;;;;;;;;;;;;;;;;5069415;28;19916;-41
2023/06/17 12:10:06;;;;;;;;;;;;;;;;;;5085707;28;20380;-42
2023/06/17 12:12:33;;;;;;;;;;;;;;;;;;5087511;28;20065;-42
2023/06/17 12:15:00;;;;;;;;;;;;;;;;;;5087530;28;20311;-42
2023/06/17 12:17:26;;;;;;;;;;;;;;;;;;5087462;28;20328;-42
2023/06/17 12:19:52;;;;;;;;;;;;;;;;;;5087209;28;19912;-41
2023/06/17 12:22:18;;;;;;;;;;;;;;;;;;5087358;28;19919;-42
2023/06/17 12:24:44;;;;;;;;;;;;;;;;;;5087136;28;19908;-42
2023/06/17 12:27:11;;;;;;;;;;;;;;;;;;5086913;28;19948;-42
2023/06/17 12:29:37;;;;;;;;;;;;;;;;;;5086076;28;20448;-41
2023/06/17 12:32:04;;;;;;;;;;;;;;;;;;5083834;28;19991;-41
2023/06/17 12:34:30;;;;;;;;;;;;;;;;;;5085162;28;19923;-42
2023/06/17 12:36:57;;;;;;;;;;;;;;;;;;5087213;28;19908;-41
2023/06/17 12:39:24;;;;;;;;;;;;;;;;;;5085786;28;19912;-41
2023/06/17 12:41:51;;;;;;;;;;;;;;;;;;5087020;28;19936;-41
2023/06/17 12:44:17;;;;;;;;;;;;;;;;;;5084694;28;19929;-42
2023/06/17 12:46:44;;;;;;;;;;;;;;;;;;5087003;28;19908;-43
2023/06/17 12:49:10;;;;;;;;;;;;;;;;;;5085630;28;19923;-42
2023/06/17 12:51:37;;;;;;;;;;;;;;;;;;5085782;28;19955;-41
2023/06/17 12:54:04;;;;;;;;;;;;;;;;;;5086631;28;19912;-41
2023/06/17 12:56:31;;;;;;;;;;;;;;;;;;5086246;28;19977;-41
2023/06/17 12:58:57;;;;;;;;;;;;;;;;;;5083870;28;19958;-41
2023/06/17 13:01:22;;;;;;;;;;;;;;;;;;5082885;28;20153;-42
2023/06/17 13:03:49;;;;;;;;;;;;;;;;;;5085538;28;19938;-42
2023/06/17 13:06:15;;;;;;;;;;;;;;;;;;5085779;28;19908;-42
2023/06/17 13:08:41;;;;;;;;;;;;;;;;;;5085215;28;20010;-41
2023/06/17 13:11:08;;;;;;;;;;;;;;;;;;5082513;28;19916;-41
2023/06/17 13:13:34;;;;;;;;;;;;;;;;;;5085029;28;20389;-42
2023/06/17 13:16:00;;;;;;;;;;;;;;;;;;5085640;28;19936;-41
2023/06/17 13:18:26;;;;;;;;;;;;;;;;;;5086096;28;19927;-42
2023/06/17 13:20:52;;;;;;;;;;;;;;;;;;5086093;28;19912;-43
2023/06/17 13:23:18;;;;;;;;;;;;;;;;;;5087540;28;19908;-41
2023/06/17 13:25:44;;;;;;;;;;;;;;;;;;5085171;28;20443;-43
2023/06/17 13:28:10;;;;;;;;;;;;;;;;;;5088117;28;19916;-41
2023/06/17 13:30:36;;;;;;;;;;;;;;;;;;5085077;28;19958;-43
2023/06/17 13:33:01;;;;;;;;;;;;;;;;;;5086836;28;19912;-43
2023/06/17 13:35:27;;;;;;;;;;;;;;;;;;5087208;28;19912;-42
2023/06/17 13:37:54;;;;;;;;;;;;;;;;;;5086990;28;19982;-44
2023/06/17 13:40:20;;;;;;;;;;;;;;;;;;5090987;28;19912;-42
2023/06/17 13:42:47;;;;;;;;;;;;;;;;;;5091044;28;20406;-42
2023/06/17 13:45:13;;;;;;;;;;;;;;;;;;5090431;28;20011;-41
2023/06/17 13:47:39;;;;;;;;;;;;;;;;;;5090614;28;20007;-42
2023/06/17 13:50:05;;;;;;;;;;;;;;;;;;5090757;28;19917;-41
2023/06/17 13:52:31;;;;;;;;;;;;;;;;;;5090005;28;19942;-42
2023/06/17 13:54:57;;;;;;;;;;;;;;;;;;5090624;28;19919;-41
2023/06/17 13:57:23;;;;;;;;;;;;;;;;;;5091827;28;19908;-44
2023/06/17 13:59:49;;;;;;;;;;;;;;;;;;5088738;28;20479;-42
2023/06/17 14:02:15;;;;;;;;;;;;;;;;;;5091235;28;19915;-41
2023/06/17 14:04:42;;;;;;;;;;;;;;;;;;5089651;28;20655;-44
2023/06/17 14:07:07;;;;;;;;;;;;;;;;;;5089846;28;19909;-42
2023/06/17 14:09:33;;;;;;;;;;;;;;;;;;5088330;28;19915;-43
2023/06/17 14:12:00;;;;;;;;;;;;;;;;;;5088490;28;19931;-41
2023/06/17 14:14:26;;;;;;;;;;;;;;;;;;5087314;28;19912;-42
2023/06/17 14:16:51;;;;;;;;;;;;;;;;;;5089106;28;20304;-42
2023/06/17 14:19:17;;;;;;;;;;;;;;;;;;5090026;28;19995;-41
2023/06/17 14:21:43;;;;;;;;;;;;;;;;;;5089309;28;19908;-43
2023/06/17 14:24:09;;;;;;;;;;;;;;;;;;5089514;28;19908;-41
2023/06/17 14:26:35;;;;;;;;;;;;;;;;;;5089472;28;19908;-41
2023/06/17 14:29:01;;;;;;;;;;;;;;;;;;5089674;28;20028;-43
2023/06/17 14:31:27;;;;;;;;;;;;;;;;;;5089478;28;20087;-43
2023/06/17 14:33:53;;;;;;;;;;;;;;;;;;5089991;28;19908;-42
2023/06/17 14:36:19;;;;;;;;;;;;;;;;;;5089366;28;19912;-43
2023/06/17 14:38:45;;;;;;;;;;;;;;;;;;5089266;28;19908;-42
2023/06/17 14:41:11;;;;;;;;;;;;;;;;;;5089215;28;19908;-42
2023/06/17 14:43:37;;;;;;;;;;;;;;;;;;5089324;28;19964;-42
2023/06/17 14:46:04;;;;;;;;;;;;;;;;;;5072271;28;19908;-42
2023/06/17 14:48:30;;;;;;;;;;;;;;;;;;5067358;28;19916;-41
2023/06/17 14:50:56;;;;;;;;;;;;;;;;;;5067267;28;19962;-41
2023/06/17 14:53:22;;;;;;;;;;;;;;;;;;5067822;28;19966;-41
2023/06/17 14:55:47;;;;;;;;;;;;;;;;;;5067349;28;20454;-42
2023/06/17 14:58:14;;;;;;;;;;;;;;;;;;5067047;28;19908;-42
2023/06/17 15:00:40;;;;;;;;;;;;;;;;;;5067021;28;19916;-41
2023/06/17 15:03:08;;;;;;;;;;;;;;;;;;5067086;28;19961;-41
2023/06/17 15:05:36;;;;;;;;;;;;;;;;;;5067105;28;19908;-41
2023/06/17 15:08:01;;;;;;;;;;;;;;;;;;5066757;28;20296;-42
2023/06/17 15:10:27;;;;;;;;;;;;;;;;;;5066664;28;20442;-41
2023/06/17 15:12:54;;;;;;;;;;;;;;;;;;5067660;28;19916;-42
2023/06/17 15:15:20;;;;;;;;;;;;;;;;;;5067137;28;20041;-42
2023/06/17 15:17:46;;;;;;;;;;;;;;;;;;5066769;28;20007;-42
2023/06/17 15:20:12;;;;;;;;;;;;;;;;;;5066586;28;19912;-42
2023/06/17 15:22:38;;;;;;;;;;;;;;;;;;5066565;28;19932;-42
2023/06/17 15:25:04;;;;;;;;;;;;;;;;;;5066586;28;20392;-41
2023/06/17 15:27:30;;;;;;;;;;;;;;;;;;5066650;28;19909;-44
2023/06/17 15:29:56;;;;;;;;;;;;;;;;;;5067050;28;19942;-41
2023/06/17 15:32:22;;;;;;;;;;;;;;;;;;5067337;28;20007;-41
2023/06/17 15:34:48;;;;;;;;;;;;;;;;;;5066551;28;19995;-42
2023/06/17 15:37:14;;;;;;;;;;;;;;;;;;5066285;28;19912;-41
2023/06/17 15:39:41;;;;;;;;;;;;;;;;;;5066880;28;19918;-42
2023/06/17 15:42:07;;;;;;;;;;;;;;;;;;5066423;28;19913;-42
2023/06/17 15:44:33;;;;;;;;;;;;;;;;;;5066308;28;19912;-43
2023/06/17 15:47:00;;;;;;;;;;;;;;;;;;5077031;28;19922;-42
2023/06/17 15:49:26;;;;;;;;;;;;;;;;;;5086356;28;20007;-42
2023/06/17 15:51:51;;;;;;;;;;;;;;;;;;5086206;28;20085;-43
2023/06/17 15:54:18;;;;;;;;;;;;;;;;;;5086600;28;19916;-42
2023/06/17 15:56:47;;;;;;;;;;;;;;;;;;5086053;28;19942;-42
2023/06/17 15:59:13;;;;;;;;;;;;;;;;;;5084735;28;19912;-41
2023/06/17 16:01:39;;;;;;;;;;;;;;;;;;5085113;28;19919;-41
2023/06/17 16:04:15;;;;;;;;;;;;;;;;;;5083162;28;19912;-41
2023/06/17 16:06:41;;;;;;;;;;;;;;;;;;5086997;28;19916;-42
2023/06/17 16:09:07;;;;;;;;;;;;;;;;;;5084910;28;19969;-41
2023/06/17 16:11:33;;;;;;;;;;;;;;;;;;5083499;28;19982;-41
2023/06/17 16:13:59;;;;;;;;;;;;;;;;;;5084055;28;19919;-42
2023/06/17 16:16:25;;;;;;;;;;;;;;;;;;5087674;28;19957;-41
2023/06/17 16:18:51;;;;;;;;;;;;;;;;;;5088198;28;19912;-42
2023/06/17 16:21:17;;;;;;;;;;;;;;;;;;5087410;28;20023;-42
2023/06/17 16:23:43;;;;;;;;;;;;;;;;;;5085926;28;19934;-41
2023/06/17 16:26:10;;;;;;;;;;;;;;;;;;5085117;28;19977;-44
2023/06/17 16:28:35;;;;;;;;;;;;;;;;;;5083951;28;20436;-42
2023/06/17 16:31:01;;;;;;;;;;;;;;;;;;5085834;28;19942;-42
2023/06/17 16:33:27;;;;;;;;;;;;;;;;;;5084571;28;19969;-41
2023/06/17 16:35:53;;;;;;;;;;;;;;;;;;5085462;28;19961;-42
2023/06/17 16:38:19;;;;;;;;;;;;;;;;;;5083524;28;19913;-42
2023/06/17 16:40:45;;;;;;;;;;;;;;;;;;5085481;28;19991;-42
2023/06/17 16:43:11;;;;;;;;;;;;;;;;;;5085700;28;20045;-41
2023/06/17 16:45:38;;;;;;;;;;;;;;;;;;5086600;28;20301;-43
2023/06/17 16:48:04;;;;;;;;;;;;;;;;;;5106186;28;19908;-42
2023/06/17 16:50:31;;;;;;;;;;;;;;;;;;5084715;28;20340;-44
2023/06/17 16:52:56;;;;;;;;;;;;;;;;;;5084529;28;19922;-41
2023/06/17 16:55:22;;;;;;;;;;;;;;;;;;5083019;28;20460;-42
2023/06/17 16:57:48;;;;;;;;;;;;;;;;;;5073834;28;19931;-42
2023/06/17 17:00:14;;;;;;;;;;;;;;;;;;5081570;28;20384;-42
2023/06/17 17:02:40;;;;;;;;;;;;;;;;;;5081848;28;19915;-42
2023/06/17 17:05:07;;;;;;;;;;;;;;;;;;5081899;28;19999;-41
2023/06/17 17:07:33;;;;;;;;;;;;;;;;;;5078157;28;19916;-41
2023/06/17 17:09:59;;;;;;;;;;;;;;;;;;5081725;28;20190;-42
2023/06/17 17:12:26;;;;;;;;;;;;;;;;;;5080466;28;19965;-42
2023/06/17 17:14:51;;;;;;;;;;;;;;;;;;5083311;28;19912;-42
2023/06/17 17:17:17;;;;;;;;;;;;;;;;;;5085254;28;20073;-41
2023/06/17 17:19:43;;;;;;;;;;;;;;;;;;5084354;28;19919;-43
2023/06/17 17:22:10;;;;;;;;;;;;;;;;;;5084635;28;19912;-42
2023/06/17 17:24:37;;;;;;;;;;;;;;;;;;5078588;28;19958;-41
2023/06/17 17:27:04;;;;;;;;;;;;;;;;;;5077528;28;19959;-42
2023/06/17 17:29:30;;;;;;;;;;;;;;;;;;5078563;28;19920;-42
2023/06/17 17:31:56;;;;;;;;;;;;;;;;;;5088029;28;19953;-41
2023/06/17 17:34:23;;;;;;;;;;;;;;;;;;5085494;28;20388;-41
2023/06/17 17:36:49;;;;;;;;;;;;;;;;;;5085186;28;19916;-41
2023/06/17 17:39:15;;;;;;;;;;;;;;;;;;5079967;28;19973;-42
2023/06/17 17:41:41;;;;;;;;;;;;;;;;;;5081435;28;19912;-42
2023/06/17 17:44:07;;;;;;;;;;;;;;;;;;5086508;28;19908;-43
2023/06/17 17:46:33;;;;;;;;;;;;;;;;;;5087315;28;19912;-41
2023/06/17 17:48:59;;;;;;;;;;;;;;;;;;5084229;28;19912;-41
2023/06/17 17:51:26;;;;;;;;;;;;;;;;;;5083943;28;19912;-42
2023/06/17 17:53:54;;;;;;;;;;;;;;;;;;5081972;28;20381;-42
2023/06/17 17:56:21;;;;;;;;;;;;;;;;;;5081348;28;19912;-41
2023/06/17 17:58:49;;;;;;;;;;;;;;;;;;5081963;28;19947;-42
2023/06/17 18:01:15;;;;;;;;;;;;;;;;;;5083896;28;19919;-41
2023/06/17 18:03:41;;;;;;;;;;;;;;;;;;5081801;28;19919;-43
2023/06/17 18:06:07;;;;;;;;;;;;;;;;;;5083284;28;19917;-41
2023/06/17 18:08:33;;;;;;;;;;;;;;;;;;5083692;28;19950;-43
2023/06/17 18:10:59;;;;;;;;;;;;;;;;;;5086901;28;19970;-42
2023/06/17 18:13:27;;;;;;;;;;;;;;;;;;5084072;28;19958;-42
2023/06/17 18:15:53;;;;;;;;;;;;;;;;;;5082510;28;20689;-41
2023/06/17 18:18:19;;;;;;;;;;;;;;;;;;5082321;28;19965;-43
2023/06/17 18:20:46;;;;;;;;;;;;;;;;;;5080573;28;19915;-42
2023/06/17 18:23:12;;;;;;;;;;;;;;;;;;5079353;28;19987;-41
2023/06/17 18:25:38;;;;;;;;;;;;;;;;;;5081378;28;19919;-43
2023/06/17 18:28:05;;;;;;;;;;;;;;;;;;5080594;28;19959;-41
2023/06/17 18:30:31;;;;;;;;;;;;;;;;;;5078848;28;19912;-42
2023/06/17 18:32:57;;;;;;;;;;;;;;;;;;5080710;28;19920;-41
2023/06/17 18:35:23;;;;;;;;;;;;;;;;;;5075525;28;19920;-42
2023/06/17 18:37:48;;;;;;;;;;;;;;;;;;5082332;28;19959;-42
2023/06/17 18:40:14;;;;;;;;;;;;;;;;;;5083487;28;20328;-42
2023/06/17 18:42:40;;;;;;;;;;;;;;;;;;5076977;28;20042;-42
2023/06/17 18:45:08;;;;;;;;;;;;;;;;;;5074986;28;19939;-42
2023/06/17 18:47:36;;;;;;;;;;;;;;;;;;5081572;28;19947;-41
2023/06/17 18:50:02;;;;;;;;;;;;;;;;;;5083315;28;19974;-41
2023/06/17 18:52:28;;;;;;;;;;;;;;;;;;5084065;28;20330;-41
2023/06/17 18:54:54;;;;;;;;;;;;;;;;;;5084602;28;19916;-42
2023/06/17 18:57:21;;;;;;;;;;;;;;;;;;5084270;28;19912;-40
2023/06/17 18:59:47;;;;;;;;;;;;;;;;;;5079105;28;19924;-42
2023/06/17 19:02:12;;;;;;;;;;;;;;;;;;5081320;28;19924;-41
2023/06/17 19:04:38;;;;;;;;;;;;;;;;;;5082513;28;19927;-41
2023/06/17 19:07:04;;;;;;;;;;;;;;;;;;5081064;28;19920;-41
2023/06/17 19:09:30;;;;;;;;;;;;;;;;;;5083952;28;20293;-42
2023/06/17 19:11:59;;;;;;;;;;;;;;;;;;5081919;28;19923;-40
2023/06/17 19:14:25;;;;;;;;;;;;;;;;;;5082128;28;19916;-41
2023/06/17 19:16:52;;;;;;;;;;;;;;;;;;5083287;28;19942;-41
2023/06/17 19:19:18;;;;;;;;;;;;;;;;;;5083786;28;20416;-41
2023/06/17 19:21:44;;;;;;;;;;;;;;;;;;5079941;28;19924;-42
2023/06/17 19:24:11;;;;;;;;;;;;;;;;;;5084228;28;19920;-41
2023/06/17 19:26:37;;;;;;;;;;;;;;;;;;5081202;28;19912;-42
2023/06/17 19:29:04;;;;;;;;;;;;;;;;;;5083492;28;20387;-40
2023/06/17 19:31:29;;;;;;;;;;;;;;;;;;5082294;28;20450;-41
2023/06/17 19:33:55;;;;;;;;;;;;;;;;;;5082926;28;20002;-41
2023/06/17 19:36:22;;;;;;;;;;;;;;;;;;5083561;28;19923;-41
2023/06/17 19:38:49;;;;;;;;;;;;;;;;;;5079684;28;19927;-41
2023/06/17 19:41:15;;;;;;;;;;;;;;;;;;5083393;28;19997;-40
2023/06/17 19:43:44;;;;;;;;;;;;;;;;;;5082119;28;19957;-40
2023/06/17 19:46:10;;;;;;;;;;;;;;;;;;5082286;28;20381;-41
2023/06/17 19:48:36;;;;;;;;;;;;;;;;;;5080567;28;19916;-40
2023/06/17 19:51:02;;;;;;;;;;;;;;;;;;5079998;28;19931;-40
2023/06/17 19:53:28;;;;;;;;;;;;;;;;;;5070990;28;19912;-40
2023/06/17 19:55:55;;;;;;;;;;;;;;;;;;5077455;28;20478;-42
2023/06/17 19:58:22;;;;;;;;;;;;;;;;;;5082994;28;19913;-41
2023/06/17 20:00:49;;;;;;;;;;;;;;;;;;5082029;28;20288;-40
2023/06/17 20:03:16;;;;;;;;;;;;;;;;;;5076340;28;19916;-41
2023/06/17 20:05:42;;;;;;;;;;;;;;;;;;5081963;28;19918;-41
2023/06/17 20:08:07;;;;;;;;;;;;;;;;;;5081968;28;20010;-41
2023/06/17 20:10:33;;;;;;;;;;;;;;;;;;5081260;28;20372;-41
2023/06/17 20:12:59;;;;;;;;;;;;;;;;;;5083357;28;19916;-42
2023/06/17 20:15:26;;;;;;;;;;;;;;;;;;5080670;28;19912;-41
2023/06/17 20:17:53;;;;;;;;;;;;;;;;;;5079834;28;19912;-42
2023/06/17 20:20:18;;;;;;;;;;;;;;;;;;5080682;28;20281;-41
2023/06/17 20:22:44;;;;;;;;;;;;;;;;;;5082013;28;19973;-41
2023/06/17 20:25:10;;;;;;;;;;;;;;;;;;5081309;28;20438;-42
2023/06/17 20:27:36;;;;;;;;;;;;;;;;;;5081853;28;19912;-41
2023/06/17 20:30:03;;;;;;;;;;;;;;;;;;5080600;28;19916;-41
2023/06/17 20:32:29;;;;;;;;;;;;;;;;;;5082539;28;19916;-41
2023/06/17 20:34:58;;;;;;;;;;;;;;;;;;5081398;28;19927;-42
2023/06/17 20:37:25;;;;;;;;;;;;;;;;;;5080064;28;20439;-42
2023/06/17 20:39:51;;;;;;;;;;;;;;;;;;5081410;28;19943;-41
2023/06/17 20:42:18;;;;;;;;;;;;;;;;;;5081452;28;19959;-43
2023/06/17 20:44:44;;;;;;;;;;;;;;;;;;5081021;28;19924;-41
2023/06/17 20:47:11;;;;;;;;;;;;;;;;;;5079886;28;20334;-41
2023/06/17 20:49:38;;;;;;;;;;;;;;;;;;5083389;28;19969;-40
2023/06/17 20:52:04;;;;;;;;;;;;;;;;;;5085391;28;19916;-42
2023/06/17 20:54:31;;;;;;;;;;;;;;;;;;5087594;28;19920;-40
2023/06/17 20:56:58;;;;;;;;;;;;;;;;;;5079106;28;20278;-43
2023/06/17 20:59:25;;;;;;;;;;;;;;;;;;5086031;28;19923;-41
2023/06/17 21:01:51;;;;;;;;;;;;;;;;;;5086049;28;19912;-43
2023/06/17 21:04:17;;;;;;;;;;;;;;;;;;5084874;28;19919;-41
2023/06/17 21:06:42;;;;;;;;;;;;;;;;;;5082369;28;19912;-41
2023/06/17 21:09:08;;;;;;;;;;;;;;;;;;5082498;28;19916;-41
2023/06/17 21:11:34;;;;;;;;;;;;;;;;;;5086861;28;19920;-41
2023/06/17 21:14:01;;;;;;;;;;;;;;;;;;5087491;28;19916;-42
2023/06/17 21:16:27;;;;;;;;;;;;;;;;;;5086905;28;19958;-40
2023/06/17 21:18:54;;;;;;;;;;;;;;;;;;5085683;28;19959;-41
2023/06/17 21:21:20;;;;;;;;;;;;;;;;;;5086902;28;19916;-40
2023/06/17 21:23:46;;;;;;;;;;;;;;;;;;5085949;28;20070;-41
2023/06/17 21:26:13;;;;;;;;;;;;;;;;;;5088541;28;19908;-41
2023/06/17 21:28:38;;;;;;;;;;;;;;;;;;5088272;28;19916;-40
2023/06/17 21:31:06;;;;;;;;;;;;;;;;;;5085436;28;20025;-41
2023/06/17 21:33:33;;;;;;;;;;;;;;;;;;5088341;28;20106;-42
2023/06/17 21:35:59;;;;;;;;;;;;;;;;;;5086785;28;20277;-40
2023/06/17 21:38:25;;;;;;;;;;;;;;;;;;5088475;28;19916;-41
2023/06/17 21:40:51;;;;;;;;;;;;;;;;;;5088493;28;19943;-41
2023/06/17 21:43:17;;;;;;;;;;;;;;;;;;5086632;28;19908;-40
2023/06/17 21:45:43;;;;;;;;;;;;;;;;;;5086110;28;19935;-42